Portada
METAR-TAF:

METAR-TAF

Aeroports :

Lahore, Pakistan

latitud: 31-31N, longitud: 074-24E, altitud: 216 m

Observació

L'informe es va fer fa 38 minuts, a les 14:55 UTC
Vent 6 kt del Oest/Sud-Oest
Temperatura 38°C
Humitat 35%
Pressió 1001 hPa
Visibilitat: 5000 m
Escasses núvols a una alçada de 10000 ft
calitja

METAR: OPLA 251455Z 24006KT 5000 HZ FEW100 38/20 Q1001 NOSIG RMK QFE975 RMK A29.58

Hora: 20:33 (15:33 UTC)

Pronòstic

L'informe es va fer fa 5 hores i 48 minuts, a les 09:45 UTC
Pronòstic vàlid del 25 a les 12 UTC al 26 a les 18 UTC
Vent 5 kt del Nord/Nord-Oest
Visibilitat: 4000 m
fum
A partir de les UTC
Vent 8 kt del Nord-Oest
Visibilitat: 6000 m

TAF: OPLA 250945Z 2512/2618 34005KT 4000 FU NSC TX44/2610Z TN27/2524Z FM 260400 31008KT 6000 NSC

Observacions i pronòstics meteorològics de més de 4000 aeroports (METAR i TAF).

Les estacions disponibles són els punts grocs i vermells al mapa.

Posi el ratolí al punt desitjat per veure el nom de l'estació.

Feu clic per veure les observacions i els pronòstics meteorològics.

Per canviar el mapa: feu clic els botons verds amb una creu de color negre per apropar; al botó verd amb un guió per allunyar la imatge; o en les fletxes verdes per a mapes adjacents.


METAR-TAF: